EGUW

RAF Wattisham Airport

Stowmarket, United Kingdom
METAR EGUW 181550Z 04007KT 9999 BKN035 SCT220 12/07 Q1026 BLU NOSIG
Observed Flight Rules
Oct-18 @ 15:50 UTC (51 minutes ago) Visual Flight Rules
Wind Visibility Clouds
40° at 7 knots 10,000+ meters
  • Broken at 3,500' AGL
  • Scattered at 22,000' AGL
Temperatures Readings
Current 12°C / 54°F
Dewpoint 7°C / 45°F
Humidity 72%
Altimeter 30.3" Hg
Pressure 1026 hPa
Elevation 87
METAR EGUW 181550Z 04007KT 9999 BKN035 SCT220 12/07 Q1026 BLU NOSIG
Observed Flight Rules
Oct-18 @ 15:50 UTC
(51 minutes ago)
VFR
Wind Visibility
40° at 7 knots 10,000+ meters
Clouds
  • Broken at 3,500' AGL
  • Scattered at 22,000' AGL
Temperature Dewpoint
12°C / 54°F 7°C / 45°F
Humidity Altimeter Pressure
72% 30.3" Hg 1026 hPa